Time;durP1;ratioP1;P1;durP2;ratioP2;P2;SDS_P1;SDS_P2;PMS_P1;PMS_P2;Temp;Humidity;BMP_temperature;BMP_pressure;BME280_temperature;BME280_humidity;BME280_pressure;Samples;Min_cycle;Max_cycle;Signal;HPM_P1;HPM_P2
2021/07/06 00:00:16;;;;;;;14.70;11.13;;;16.80;99.90;;;;;;4360343;32;20199;-62
2021/07/06 00:02:52;;;;;;;11.87;10.67;;;16.80;99.90;;;;;;4360783;32;20178;-62
2021/07/06 00:08:06;;;;;;;14.17;10.70;;;16.80;99.90;;;;;;4360238;32;20426;-62
2021/07/06 00:10:35;;;;;;;12.33;10.50;;;16.80;99.90;;;;;;4364994;32;20222;-62
2021/07/06 00:13:02;;;;;;;11.23;9.50;;;16.90;99.90;;;;;;4377535;32;20149;-59
2021/07/06 00:15:31;;;;;;;16.13;11.40;;;16.80;99.90;;;;;;4374926;32;20183;-62
2021/07/06 00:18:00;;;;;;;11.73;9.37;;;16.80;99.90;;;;;;4375724;32;20162;-61
2021/07/06 00:20:28;;;;;;;11.43;9.40;;;16.80;99.90;;;;;;4368567;32;20144;-59
2021/07/06 00:22:55;;;;;;;13.40;9.73;;;16.80;99.90;;;;;;4375553;32;20568;-60
2021/07/06 00:25:22;;;;;;;10.33;8.73;;;16.90;99.90;;;;;;4374670;32;20226;-62
2021/07/06 00:27:49;;;;;;;11.27;9.30;;;16.90;99.90;;;;;;4375021;32;20136;-60
2021/07/06 00:30:17;;;;;;;12.17;9.17;;;16.90;99.90;;;;;;4366058;32;20270;-61
2021/07/06 00:32:44;;;;;;;10.83;9.73;;;16.90;99.90;;;;;;4365801;32;20220;-63
2021/07/06 00:35:12;;;;;;;14.30;9.87;;;17.00;99.90;;;;;;4376813;32;20159;-62
2021/07/06 00:37:40;;;;;;;11.63;8.80;;;17.00;99.90;;;;;;4374742;32;20188;-63
2021/07/06 00:40:09;;;;;;;13.23;10.30;;;17.00;99.90;;;;;;4371874;32;20227;-61
2021/07/06 00:42:41;;;;;;;9.90;8.90;;;17.10;99.90;;;;;;4376304;32;20168;-61
2021/07/06 00:45:10;;;;;;;10.50;8.50;;;17.10;99.90;;;;;;4375496;32;20198;-60
2021/07/06 00:47:41;;;;;;;13.63;9.30;;;17.10;99.90;;;;;;4373766;32;20208;-61
2021/07/06 00:50:10;;;;;;;10.37;8.63;;;17.20;99.90;;;;;;4370933;32;20183;-62
2021/07/06 00:52:37;;;;;;;10.67;7.90;;;17.20;99.90;;;;;;4374287;32;20228;-60
2021/07/06 00:55:07;;;;;;;12.63;8.50;;;17.20;99.90;;;;;;4375904;32;20531;-62
2021/07/06 00:57:35;;;;;;;9.23;8.03;;;17.20;99.90;;;;;;4374254;32;20174;-60
2021/07/06 01:00:06;;;;;;;9.53;8.17;;;17.30;99.90;;;;;;4372311;32;20164;-60
2021/07/06 01:02:33;;;;;;;10.73;8.27;;;17.20;99.90;;;;;;4372143;32;20156;-62
2021/07/06 01:05:00;;;;;;;10.87;8.13;;;17.30;99.90;;;;;;4374728;32;20172;-63
2021/07/06 01:07:27;;;;;;;10.77;7.77;;;17.30;99.90;;;;;;4373573;32;20188;-61
2021/07/06 01:09:54;;;;;;;9.43;7.40;;;17.30;99.90;;;;;;4373385;32;20164;-61
2021/07/06 01:12:22;;;;;;;9.30;7.07;;;17.40;99.90;;;;;;4370440;32;20164;-62
2021/07/06 01:14:51;;;;;;;9.73;7.10;;;17.30;99.90;;;;;;4374564;32;20148;-62
2021/07/06 01:17:28;;;;;;;11.00;7.00;;;17.40;99.90;;;;;;4373729;32;20152;-62
2021/07/06 01:19:55;;;;;;;11.50;7.17;;;17.40;99.90;;;;;;4375149;32;20148;-61
2021/07/06 01:22:28;;;;;;;6.97;6.33;;;17.40;99.90;;;;;;4374190;32;20141;-62
2021/07/06 01:24:55;;;;;;;8.00;7.13;;;17.40;99.90;;;;;;4376422;32;20231;-63
2021/07/06 01:27:22;;;;;;;7.57;6.30;;;17.40;99.90;;;;;;4376680;32;20167;-62
2021/07/06 01:29:50;;;;;;;7.80;5.70;;;17.40;99.90;;;;;;4376451;32;20299;-61
2021/07/06 01:32:17;;;;;;;7.00;6.07;;;17.40;99.90;;;;;;4366549;32;20254;-62
2021/07/06 01:34:43;;;;;;;9.50;5.27;;;17.40;99.90;;;;;;4377103;32;20152;-60
2021/07/06 01:37:10;;;;;;;8.23;5.40;;;17.40;99.90;;;;;;4376796;32;20148;-61
2021/07/06 01:39:39;;;;;;;5.53;4.40;;;17.40;99.90;;;;;;4376802;32;20179;-62
2021/07/06 01:42:08;;;;;;;8.13;5.17;;;17.40;99.90;;;;;;4368228;32;20198;-60
2021/07/06 01:44:35;;;;;;;7.83;4.67;;;17.40;99.90;;;;;;4376549;32;20176;-61
2021/07/06 01:47:05;;;;;;;6.17;3.97;;;17.40;99.90;;;;;;4377982;32;20141;-61
2021/07/06 01:49:33;;;;;;;4.60;4.20;;;17.40;99.90;;;;;;4375573;32;20283;-61
2021/07/06 01:52:03;;;;;;;5.17;3.90;;;17.30;99.90;;;;;;4370638;32;20149;-61
2021/07/06 01:54:30;;;;;;;5.77;4.03;;;17.30;99.90;;;;;;4374797;32;20175;-61
2021/07/06 01:56:58;;;;;;;4.50;3.57;;;17.30;99.90;;;;;;4376653;32;20180;-61
2021/07/06 01:59:25;;;;;;;4.10;3.70;;;17.30;99.90;;;;;;4376386;32;20531;-62
2021/07/06 02:01:52;;;;;;;3.87;3.33;;;17.20;99.90;;;;;;4372729;32;20175;-61
2021/07/06 02:04:19;;;;;;;5.50;3.20;;;17.20;99.90;;;;;;4373485;32;20179;-61
2021/07/06 02:06:46;;;;;;;5.40;4.03;;;17.20;99.90;;;;;;4377512;32;20243;-60
2021/07/06 02:09:13;;;;;;;4.00;3.20;;;17.20;99.90;;;;;;4376329;32;20167;-61
2021/07/06 02:11:39;;;;;;;5.53;3.40;;;17.20;99.90;;;;;;4373968;32;20212;-61
2021/07/06 02:14:07;;;;;;;6.57;3.50;;;17.20;99.90;;;;;;4375540;32;20226;-62
2021/07/06 02:16:36;;;;;;;5.03;3.00;;;17.20;99.90;;;;;;4376487;32;20152;-61
2021/07/06 02:19:04;;;;;;;4.73;3.10;;;17.10;99.90;;;;;;4376617;32;20155;-61
2021/07/06 02:21:30;;;;;;;4.23;3.10;;;17.10;99.90;;;;;;4376138;32;20595;-60
2021/07/06 02:23:57;;;;;;;3.27;2.73;;;17.10;99.90;;;;;;4374644;32;20148;-60
2021/07/06 02:26:24;;;;;;;4.80;2.90;;;17.10;99.90;;;;;;4375713;32;20652;-61
2021/07/06 02:28:51;;;;;;;4.20;2.83;;;17.10;99.90;;;;;;4376777;32;20179;-61
2021/07/06 02:31:19;;;;;;;2.97;2.70;;;17.10;99.90;;;;;;4376704;32;20180;-62
2021/07/06 02:33:46;;;;;;;4.80;2.33;;;17.10;99.90;;;;;;4366253;32;20224;-62
2021/07/06 02:36:13;;;;;;;5.83;2.30;;;17.10;99.90;;;;;;4361950;32;20468;-62
2021/07/06 02:38:40;;;;;;;2.53;2.33;;;17.10;99.90;;;;;;4376257;32;20445;-61
2021/07/06 02:41:07;;;;;;;2.50;2.20;;;17.10;99.90;;;;;;4376238;32;20568;-60
2021/07/06 02:43:38;;;;;;;2.50;2.30;;;17.10;99.90;;;;;;4374664;32;20163;-60
2021/07/06 02:46:06;;;;;;;2.50;1.90;;;17.10;99.90;;;;;;4376074;32;20172;-62
2021/07/06 02:48:35;;;;;;;2.63;1.90;;;17.00;99.90;;;;;;4376425;32;20159;-62
2021/07/06 02:51:02;;;;;;;3.03;1.83;;;17.10;99.90;;;;;;4375869;32;20179;-61
2021/07/06 02:53:30;;;;;;;4.30;2.30;;;17.00;99.90;;;;;;4373877;32;20215;-60
2021/07/06 02:56:01;;;;;;;1.87;1.77;;;17.10;99.90;;;;;;4375684;32;20235;-61
2021/07/06 02:58:28;;;;;;;4.20;1.93;;;17.00;99.90;;;;;;4370352;32;20523;-62
2021/07/06 03:00:55;;;;;;;2.00;1.70;;;17.10;99.90;;;;;;4376407;32;20561;-61
2021/07/06 03:03:22;;;;;;;2.93;1.90;;;17.00;99.90;;;;;;4372048;32;20661;-62
2021/07/06 03:05:50;;;;;;;2.90;1.70;;;17.00;99.90;;;;;;4376016;32;20180;-61
2021/07/06 03:08:17;;;;;;;3.80;1.80;;;17.10;99.90;;;;;;4376126;32;20583;-62
2021/07/06 03:10:44;;;;;;;4.17;2.30;;;17.10;99.90;;;;;;4375724;32;20153;-62
2021/07/06 03:13:11;;;;;;;4.07;2.00;;;17.00;99.90;;;;;;4378763;32;20588;-61
2021/07/06 03:15:38;;;;;;;2.27;2.07;;;17.00;99.90;;;;;;4373910;32;20561;-62
2021/07/06 03:18:06;;;;;;;3.30;2.13;;;17.00;99.90;;;;;;4375067;32;20210;-62
2021/07/06 03:20:33;;;;;;;3.43;2.20;;;17.00;99.90;;;;;;4375299;32;20186;-61
2021/07/06 03:23:02;;;;;;;3.10;1.87;;;17.00;99.90;;;;;;4375633;32;20604;-61
2021/07/06 03:25:32;;;;;;;2.17;2.03;;;17.10;99.90;;;;;;4373303;32;20159;-62
2021/07/06 03:28:00;;;;;;;3.00;1.90;;;17.10;99.90;;;;;;4376157;32;20162;-62
2021/07/06 03:30:29;;;;;;;4.50;2.03;;;17.10;99.90;;;;;;4374882;32;20238;-61
2021/07/06 03:32:58;;;;;;;2.17;1.97;;;17.20;99.90;;;;;;4376199;32;20163;-61
2021/07/06 03:35:25;;;;;;;3.90;2.60;;;17.20;99.90;;;;;;4369287;32;20176;-62
2021/07/06 03:37:53;;;;;;;2.93;2.23;;;17.20;99.90;;;;;;4366014;32;20144;-61
2021/07/06 03:40:25;;;;;;;3.97;2.37;;;17.20;99.90;;;;;;4367518;32;20176;-62
2021/07/06 03:42:52;;;;;;;5.37;2.40;;;17.30;99.90;;;;;;4365486;32;20175;-61
2021/07/06 03:45:20;;;;;;;3.27;2.20;;;17.30;99.90;;;;;;4370563;32;20259;-61
2021/07/06 03:47:48;;;;;;;3.93;2.57;;;17.30;99.90;;;;;;4370541;32;20211;-60
2021/07/06 03:50:18;;;;;;;3.20;2.40;;;17.40;99.90;;;;;;4363983;32;20598;-61
2021/07/06 03:52:46;;;;;;;3.60;2.10;;;17.30;99.90;;;;;;4368546;32;20442;-61
2021/07/06 03:55:13;;;;;;;2.20;2.00;;;17.40;99.90;;;;;;4374136;32;20473;-60
2021/07/06 03:57:42;;;;;;;3.43;2.10;;;17.40;99.90;;;;;;4370938;32;20151;-62
2021/07/06 04:00:11;;;;;;;4.60;2.37;;;17.30;99.90;;;;;;4287478;33;2407728;-62
2021/07/06 04:02:38;;;;;;;3.40;2.90;;;17.30;99.90;;;;;;4360347;33;20160;-62
2021/07/06 04:05:07;;;;;;;3.57;2.70;;;17.30;99.90;;;;;;4358836;32;20203;-61
2021/07/06 04:07:35;;;;;;;5.60;1.90;;;17.30;99.90;;;;;;4360681;32;20160;-61
2021/07/06 04:10:03;;;;;;;6.77;1.83;;;17.40;99.90;;;;;;4359953;32;20526;-61
2021/07/06 04:12:30;;;;;;;2.60;2.10;;;17.40;99.90;;;;;;4360416;33;20176;-60
2021/07/06 04:14:58;;;;;;;2.80;1.77;;;17.50;99.90;;;;;;4358651;32;20526;-61
2021/07/06 04:17:25;;;;;;;2.93;2.13;;;17.60;99.90;;;;;;4360605;32;20178;-61
2021/07/06 04:19:53;;;;;;;3.73;2.00;;;17.70;99.90;;;;;;4359577;33;20172;-62
2021/07/06 04:22:20;;;;;;;3.67;1.93;;;17.80;99.90;;;;;;4359238;33;20289;-60
2021/07/06 04:24:47;;;;;;;4.30;2.90;;;17.80;99.90;;;;;;4359275;32;20183;-61
2021/07/06 04:27:14;;;;;;;5.00;2.60;;;17.60;99.90;;;;;;4345702;33;20152;-63
2021/07/06 04:29:41;;;;;;;2.80;2.53;;;17.40;99.90;;;;;;4352166;32;20180;-62
2021/07/06 04:32:09;;;;;;;6.93;2.50;;;17.40;99.90;;;;;;4360104;33;20164;-62
2021/07/06 04:34:36;;;;;;;4.10;2.67;;;17.30;99.90;;;;;;4359287;32;20175;-61
2021/07/06 04:37:03;;;;;;;4.23;2.30;;;17.20;99.90;;;;;;4358154;33;20160;-63
2021/07/06 04:39:30;;;;;;;3.87;3.00;;;17.30;99.90;;;;;;4359539;33;20168;-62
2021/07/06 04:41:56;;;;;;;3.43;2.93;;;17.20;99.90;;;;;;4359461;33;20493;-62
2021/07/06 04:44:23;;;;;;;6.93;2.93;;;17.20;99.90;;;;;;4357262;33;20183;-61
2021/07/06 04:46:50;;;;;;;6.63;2.77;;;17.20;99.90;;;;;;4358903;32;20500;-61
2021/07/06 04:49:18;;;;;;;4.13;2.83;;;17.30;99.90;;;;;;4358057;33;20177;-61
2021/07/06 04:51:48;;;;;;;4.63;2.60;;;17.20;99.90;;;;;;4359156;33;20148;-62
2021/07/06 04:54:15;;;;;;;3.10;2.80;;;17.20;99.90;;;;;;4360261;32;20157;-62
2021/07/06 04:56:42;;;;;;;3.73;2.87;;;17.40;99.90;;;;;;4359302;32;20437;-62
2021/07/06 04:59:09;;;;;;;3.50;3.10;;;17.40;99.90;;;;;;4361539;33;20184;-63
2021/07/06 05:01:38;;;;;;;3.47;2.83;;;17.50;99.90;;;;;;4362128;32;20616;-61
2021/07/06 05:04:05;;;;;;;3.03;2.83;;;17.50;99.90;;;;;;4362264;32;20192;-61
2021/07/06 05:06:33;;;;;;;6.73;3.23;;;17.60;99.90;;;;;;4361258;32;20224;-63
2021/07/06 05:09:01;;;;;;;4.67;2.80;;;17.60;99.90;;;;;;4362967;32;20506;-62
2021/07/06 05:11:29;;;;;;;5.07;2.93;;;17.70;99.90;;;;;;4361901;32;20164;-62
2021/07/06 05:13:55;;;;;;;4.17;2.73;;;17.70;99.90;;;;;;4361663;33;20195;-64
2021/07/06 05:16:22;;;;;;;2.70;2.50;;;17.70;99.90;;;;;;4359189;32;20184;-62
2021/07/06 05:18:49;;;;;;;2.93;2.10;;;17.70;99.90;;;;;;4362786;32;20256;-62
2021/07/06 05:21:16;;;;;;;3.20;2.43;;;17.80;99.90;;;;;;4361604;33;20180;-63
2021/07/06 05:23:45;;;;;;;2.40;2.20;;;17.80;99.90;;;;;;4362531;33;20173;-63
2021/07/06 05:26:12;;;;;;;3.83;2.27;;;17.80;99.90;;;;;;4360709;32;20969;-61
2021/07/06 05:28:39;;;;;;;4.20;2.27;;;17.80;99.90;;;;;;4355163;33;20214;-64
2021/07/06 05:31:07;;;;;;;2.67;2.30;;;17.90;99.90;;;;;;4361922;32;20507;-63
2021/07/06 05:33:37;;;;;;;4.80;2.07;;;18.00;99.90;;;;;;4362544;32;20211;-64
2021/07/06 05:36:05;;;;;;;2.43;2.00;;;18.00;99.90;;;;;;4361906;32;20599;-65
2021/07/06 05:38:33;;;;;;;4.77;2.10;;;18.00;99.90;;;;;;4360213;32;20157;-62
2021/07/06 05:41:02;;;;;;;2.97;1.93;;;18.00;99.90;;;;;;4361439;33;20153;-63
2021/07/06 05:43:29;;;;;;;3.47;2.00;;;18.10;99.90;;;;;;4347588;33;20612;-63
2021/07/06 05:45:58;;;;;;;6.43;2.10;;;18.10;99.90;;;;;;4359797;33;20164;-62
2021/07/06 05:48:26;;;;;;;4.73;2.30;;;18.20;99.90;;;;;;4361134;32;20179;-63
2021/07/06 05:50:52;;;;;;;3.87;2.30;;;18.30;99.90;;;;;;4361001;33;20165;-63
2021/07/06 05:53:19;;;;;;;4.50;2.13;;;18.30;99.90;;;;;;4361241;33;20222;-63
2021/07/06 05:55:46;;;;;;;5.37;2.20;;;18.40;99.90;;;;;;4361544;32;20487;-63
2021/07/06 05:58:14;;;;;;;5.07;1.90;;;18.40;99.90;;;;;;4360002;32;20148;-64
2021/07/06 06:00:42;;;;;;;2.00;1.73;;;18.50;99.90;;;;;;4361140;32;20220;-64
2021/07/06 06:03:10;;;;;;;4.60;2.10;;;18.50;99.90;;;;;;4360228;33;20501;-62
2021/07/06 06:05:37;;;;;;;6.50;1.97;;;18.70;99.90;;;;;;4359672;32;20164;-64
2021/07/06 06:08:05;;;;;;;5.87;2.40;;;18.70;99.90;;;;;;4360133;32;20187;-63
2021/07/06 06:10:31;;;;;;;5.07;2.07;;;18.70;99.90;;;;;;4359762;33;20275;-64
2021/07/06 06:13:00;;;;;;;5.37;2.17;;;18.80;99.90;;;;;;4360589;32;20168;-63
2021/07/06 06:15:28;;;;;;;4.43;1.90;;;18.90;99.90;;;;;;4361700;32;20738;-62
2021/07/06 06:17:55;;;;;;;7.63;2.27;;;18.90;99.90;;;;;;4361336;32;20157;-61
2021/07/06 06:20:22;;;;;;;2.00;1.80;;;18.90;99.90;;;;;;4360423;33;20164;-63
2021/07/06 06:22:49;;;;;;;6.73;1.93;;;19.00;99.90;;;;;;4361104;32;20609;-64
2021/07/06 06:25:16;;;;;;;4.17;1.70;;;19.10;99.90;;;;;;4360670;33;20173;-64
2021/07/06 06:27:44;;;;;;;2.53;1.70;;;19.10;99.90;;;;;;4359402;32;20161;-65
2021/07/06 06:30:12;;;;;;;2.70;1.70;;;19.10;99.90;;;;;;4360429;33;20176;-64
2021/07/06 06:32:40;;;;;;;3.63;1.83;;;19.20;99.90;;;;;;4361986;32;20550;-63
2021/07/06 06:37:53;;;;;;;3.53;1.97;;;19.30;99.90;;;;;;4342100;32;20347;-64
2021/07/06 06:40:26;;;;;;;3.30;1.63;;;19.40;99.90;;;;;;4345373;32;20876;-62
2021/07/06 06:43:02;;;;;;;4.60;1.73;;;19.50;99.90;;;;;;4341253;32;20263;-63
2021/07/06 06:45:45;;;;;;;6.37;1.80;;;19.50;99.90;;;;;;4342668;32;20554;-64
2021/07/06 06:48:13;;;;;;;3.10;1.50;;;19.50;99.90;;;;;;4346099;32;20255;-63
2021/07/06 06:50:41;;;;;;;4.27;1.60;;;19.40;99.90;;;;;;4346468;32;22532;-65
2021/07/06 06:55:59;;;;;;;6.93;1.50;;;19.40;99.90;;;;;;4344541;32;20223;-62
2021/07/06 06:58:26;;;;;;;2.93;2.07;;;19.50;99.90;;;;;;4357571;32;20216;-63
2021/07/06 07:00:53;;;;;;;4.93;2.07;;;19.60;99.90;;;;;;4359996;32;20554;-63
2021/07/06 07:03:21;;;;;;;4.77;1.77;;;19.70;99.90;;;;;;4359615;33;20164;-62
2021/07/06 07:05:48;;;;;;;8.10;1.70;;;19.70;99.90;;;;;;4360062;32;20238;-62
2021/07/06 07:08:15;;;;;;;5.30;2.00;;;19.80;99.90;;;;;;4360213;32;20234;-62
2021/07/06 07:10:42;;;;;;;4.70;1.67;;;19.90;99.90;;;;;;4361451;32;20218;-63
2021/07/06 07:13:09;;;;;;;5.47;2.00;;;20.00;99.90;;;;;;4359063;33;20206;-63
2021/07/06 07:15:36;;;;;;;6.53;1.90;;;19.90;99.90;;;;;;4359104;32;20253;-63
2021/07/06 07:18:03;;;;;;;2.13;1.60;;;19.70;99.90;;;;;;4360810;32;20180;-65
2021/07/06 07:20:32;;;;;;;3.17;1.93;;;19.50;99.90;;;;;;4359088;33;20164;-64
2021/07/06 07:22:59;;;;;;;3.37;1.63;;;19.40;99.90;;;;;;4361309;32;20217;-64
2021/07/06 07:25:25;;;;;;;2.10;1.40;;;19.30;99.90;;;;;;4359738;33;20531;-64
2021/07/06 07:27:52;;;;;;;4.43;1.90;;;19.30;99.90;;;;;;4361968;32;20158;-62
2021/07/06 07:30:21;;;;;;;2.70;1.87;;;19.20;99.90;;;;;;4359824;32;20615;-63
2021/07/06 07:32:48;;;;;;;6.30;1.67;;;19.30;99.90;;;;;;4360736;32;20227;-64
2021/07/06 07:35:16;;;;;;;3.37;2.37;;;19.30;99.90;;;;;;4359945;33;20168;-64
2021/07/06 07:37:45;;;;;;;5.43;1.70;;;19.50;99.90;;;;;;4359724;33;20203;-64
2021/07/06 07:40:14;;;;;;;4.80;1.80;;;19.50;99.90;;;;;;4358848;32;20161;-63
2021/07/06 07:42:41;;;;;;;5.00;1.60;;;19.60;99.90;;;;;;4359043;33;20611;-65
2021/07/06 07:45:09;;;;;;;8.07;1.90;;;19.80;99.90;;;;;;4359190;33;20223;-63
2021/07/06 07:47:36;;;;;;;4.53;1.63;;;20.30;99.90;;;;;;4359491;33;20216;-63
2021/07/06 07:50:05;;;;;;;7.53;2.20;;;20.70;99.90;;;;;;4358602;32;20492;-64
2021/07/06 07:52:33;;;;;;;4.03;1.90;;;20.70;99.90;;;;;;4359406;33;20165;-63
2021/07/06 07:55:02;;;;;;;3.13;1.80;;;20.90;99.90;;;;;;4359506;32;20696;-64
2021/07/06 07:57:29;;;;;;;6.50;1.40;;;21.40;99.90;;;;;;4360673;32;20184;-65
2021/07/06 07:59:56;;;;;;;3.13;1.43;;;22.10;99.90;;;;;;4358933;33;20222;-63
2021/07/06 08:02:24;;;;;;;2.83;1.10;;;23.30;99.90;;;;;;4358810;33;20176;-67
2021/07/06 08:04:52;;;;;;;3.33;1.03;;;25.80;99.90;;;;;;4359322;32;20186;-64
2021/07/06 08:07:19;;;;;;;3.97;1.00;;;27.30;97.30;;;;;;4359996;32;20191;-64
2021/07/06 08:09:46;;;;;;;4.43;1.15;;;28.70;95.70;;;;;;4358458;32;20668;-65
2021/07/06 08:12:14;;;;;;;4.45;1.33;;;29.00;91.50;;;;;;4358564;32;20160;-66
2021/07/06 08:14:41;;;;;;;4.18;0.98;;;28.90;92.80;;;;;;4357699;33;20223;-64
2021/07/06 08:17:08;;;;;;;2.97;1.12;;;28.60;90.90;;;;;;4359245;32;20224;-64
2021/07/06 08:19:35;;;;;;;4.30;1.05;;;27.90;85.70;;;;;;4358516;33;20203;-64
2021/07/06 08:22:02;;;;;;;7.10;1.23;;;26.60;88.80;;;;;;4358323;32;20164;-63
2021/07/06 08:24:29;;;;;;;7.43;1.07;;;24.20;91.50;;;;;;4359049;33;20543;-64
2021/07/06 08:26:55;;;;;;;2.27;0.80;;;23.00;93.20;;;;;;4358957;33;20165;-63
2021/07/06 08:29:25;;;;;;;4.30;0.90;;;22.70;95.30;;;;;;4361713;32;20168;-65
2021/07/06 08:31:51;;;;;;;6.77;1.17;;;22.70;94.70;;;;;;4361031;32;20211;-64
2021/07/06 08:34:18;;;;;;;4.20;1.03;;;22.80;95.10;;;;;;4361334;32;20180;-64
2021/07/06 08:36:45;;;;;;;3.87;1.17;;;22.70;95.70;;;;;;4361874;33;20160;-63
2021/07/06 08:39:12;;;;;;;5.83;0.83;;;23.30;94.90;;;;;;4362624;32;20619;-64
2021/07/06 08:41:42;;;;;;;4.47;1.57;;;23.10;95.20;;;;;;4362641;32;20157;-65
2021/07/06 08:44:10;;;;;;;3.77;1.10;;;23.80;95.70;;;;;;4359655;32;20468;-64
2021/07/06 08:46:38;;;;;;;3.00;1.03;;;25.20;94.50;;;;;;4361794;33;20243;-65
2021/07/06 08:49:06;;;;;;;5.10;1.50;;;25.50;93.40;;;;;;4360813;33;20156;-65
2021/07/06 08:51:35;;;;;;;3.87;1.00;;;25.00;92.90;;;;;;4362039;32;20160;-65
2021/07/06 08:54:02;;;;;;;7.73;2.10;;;24.10;94.80;;;;;;4362435;33;20511;-65
2021/07/06 08:56:28;;;;;;;5.03;1.23;;;23.30;95.40;;;;;;4362383;33;20220;-65
2021/07/06 08:58:55;;;;;;;5.23;1.23;;;23.20;95.60;;;;;;4362685;32;20538;-64
2021/07/06 09:01:28;;;;;;;5.07;1.33;;;23.10;95.10;;;;;;4359841;32;20234;-66
2021/07/06 09:04:01;;;;;;;4.87;1.10;;;22.80;97.20;;;;;;4362813;32;20168;-64
2021/07/06 09:06:30;;;;;;;6.33;1.47;;;24.00;95.90;;;;;;4359968;32;20176;-63
2021/07/06 09:09:19;;;;;;;6.00;0.90;;;27.10;91.10;;;;;;4362199;32;20161;-63
2021/07/06 09:11:47;;;;;;;6.87;1.10;;;33.30;74.50;;;;;;4361297;32;20157;-64
2021/07/06 09:14:15;;;;;;;5.47;1.02;;;37.70;55.10;;;;;;4357208;32;20187;-64
2021/07/06 09:16:42;;;;;;;5.80;1.10;;;40.30;45.80;;;;;;4347922;33;20145;-64
2021/07/06 09:19:22;;;;;;;3.35;1.23;;;41.60;44.10;;;;;;4357672;33;20175;-66
2021/07/06 09:22:08;;;;;;;5.03;1.10;;;42.70;40.70;;;;;;4361970;32;20239;-63
2021/07/06 09:24:35;;;;;;;3.92;1.00;;;44.70;39.60;;;;;;4348009;33;20211;-65
2021/07/06 09:27:20;;;;;;;6.43;1.30;;;45.50;36.80;;;;;;4347970;33;20579;-64
2021/07/06 09:30:03;;;;;;;5.22;1.00;;;46.20;36.10;;;;;;4347910;33;20171;-64
2021/07/06 09:32:30;;;;;;;8.23;1.45;;;47.60;36.00;;;;;;4351852;32;20667;-65
2021/07/06 09:35:06;;;;;;;2.97;0.90;;;45.60;34.00;;;;;;4357667;33;20176;-65
2021/07/06 09:37:42;;;;;;;2.80;0.82;;;44.00;35.80;;;;;;4362684;32;20145;-64
2021/07/06 09:40:25;;;;;;;3.90;1.20;;;42.20;35.80;;;;;;4362430;32;20168;-65
2021/07/06 09:43:13;;;;;;;2.20;0.73;;;41.30;36.90;;;;;;4359483;32;20166;-63
2021/07/06 09:45:40;;;;;;;2.72;0.80;;;42.20;36.20;;;;;;4347695;33;20202;-63
2021/07/06 09:48:08;;;;;;;6.30;1.25;;;38.90;35.90;;;;;;4347575;33;20180;-63
2021/07/06 09:50:37;;;;;;;5.62;0.98;;;34.60;41.20;;;;;;4354741;33;20168;-65
2021/07/06 09:53:04;;;;;;;7.37;1.70;;;32.00;44.10;;;;;;4359402;33;21021;-63
2021/07/06 09:55:32;;;;;;;11.48;1.27;;;29.90;47.10;;;;;;4364108;32;20552;-63
2021/07/06 09:58:04;;;;;;;2.47;1.00;;;30.00;47.30;;;;;;4362220;33;20145;-63
2021/07/06 10:00:32;;;;;;;4.80;1.25;;;30.10;51.00;;;;;;4360253;32;20181;-63
2021/07/06 10:03:01;;;;;;;8.20;1.83;;;28.70;50.50;;;;;;4350754;33;20152;-63
2021/07/06 10:05:31;;;;;;;3.97;1.45;;;28.00;52.10;;;;;;4359905;32;20259;-63
2021/07/06 10:07:59;;;;;;;4.90;1.75;;;27.00;53.70;;;;;;4360929;32;20489;-63
2021/07/06 10:10:27;;;;;;;7.35;1.45;;;25.80;56.90;;;;;;4360820;32;20145;-63
2021/07/06 10:12:56;;;;;;;6.43;1.63;;;24.40;58.80;;;;;;4361668;32;20141;-63
2021/07/06 10:15:24;;;;;;;6.17;1.60;;;23.20;63.50;;;;;;4360783;33;20190;-64
2021/07/06 10:17:53;;;;;;;5.97;1.37;;;22.60;69.00;;;;;;4361889;32;20165;-63
2021/07/06 10:20:25;;;;;;;4.97;1.30;;;22.40;75.30;;;;;;4360275;32;20731;-64
2021/07/06 10:22:52;;;;;;;5.33;1.73;;;22.30;79.30;;;;;;4361271;32;20145;-63
2021/07/06 10:25:25;;;;;;;8.60;1.50;;;22.80;82.30;;;;;;4361411;32;20275;-64
2021/07/06 10:27:55;;;;;;;5.73;1.40;;;23.10;82.80;;;;;;4359906;33;20149;-63
2021/07/06 10:30:24;;;;;;;8.43;1.73;;;23.10;83.70;;;;;;4360862;33;20171;-63
2021/07/06 10:32:53;;;;;;;6.63;1.77;;;22.60;85.50;;;;;;4360146;33;20258;-64
2021/07/06 10:35:49;;;;;;;5.00;1.63;;;22.50;86.80;;;;;;4361731;32;20159;-62
2021/07/06 10:38:42;;;;;;;10.50;2.20;;;22.60;88.80;;;;;;4359677;33;20141;-65
2021/07/06 10:41:14;;;;;;;8.63;2.03;;;22.80;86.90;;;;;;4359656;32;20600;-65
2021/07/06 10:44:04;;;;;;;7.23;1.70;;;22.80;85.20;;;;;;4361342;32;20259;-63
2021/07/06 10:46:49;;;;;;;5.43;1.60;;;22.70;87.20;;;;;;4358695;33;20251;-63
2021/07/06 10:49:34;;;;;;;4.97;1.47;;;23.10;87.40;;;;;;4360094;32;20195;-64
2021/07/06 10:52:03;;;;;;;8.53;1.80;;;23.30;85.30;;;;;;4356559;32;20662;-64
2021/07/06 10:54:32;;;;;;;6.43;1.27;;;23.60;85.70;;;;;;4359676;32;20168;-64
2021/07/06 10:57:23;;;;;;;8.63;1.87;;;24.00;84.80;;;;;;4360826;32;20148;-62
2021/07/06 10:59:54;;;;;;;6.73;1.50;;;24.10;83.00;;;;;;4359583;32;20179;-63
2021/07/06 11:02:24;;;;;;;5.90;1.57;;;24.30;83.60;;;;;;4357135;32;20185;-63
2021/07/06 11:04:55;;;;;;;7.30;1.67;;;24.10;81.80;;;;;;4359424;32;20202;-64
2021/07/06 11:07:57;;;;;;;6.70;1.50;;;24.40;83.60;;;;;;4358827;33;20140;-64
2021/07/06 11:10:50;;;;;;;3.90;1.23;;;24.80;81.70;;;;;;4311353;33;20180;-64
2021/07/06 11:13:27;;;;;;;4.87;1.23;;;25.20;80.50;;;;;;4312875;33;20177;-64
2021/07/06 11:15:53;;;;;;;7.32;1.33;;;24.90;76.70;;;;;;4315641;33;20246;-63
2021/07/06 11:18:38;;;;;;;4.10;1.10;;;24.60;77.90;;;;;;4314146;33;20185;-63
2021/07/06 11:21:37;;;;;;;6.60;1.23;;;24.60;76.40;;;;;;4315764;33;20613;-62
2021/07/06 11:24:15;;;;;;;4.90;1.27;;;24.40;76.50;;;;;;4303865;33;20169;-63
2021/07/06 11:26:44;;;;;;;9.73;1.70;;;23.90;78.90;;;;;;4300264;33;20162;-63
2021/07/06 11:29:13;;;;;;;5.77;1.37;;;23.40;82.10;;;;;;4301753;33;20146;-63
2021/07/06 11:31:40;;;;;;;7.57;1.13;;;22.70;82.80;;;;;;4303923;33;20154;-61
2021/07/06 11:34:19;;;;;;;3.30;1.20;;;22.30;82.90;;;;;;4313966;33;20172;-62
2021/07/06 11:36:47;;;;;;;6.43;1.30;;;22.30;83.40;;;;;;4314792;33;20175;-62
2021/07/06 11:39:14;;;;;;;6.90;1.37;;;22.40;85.30;;;;;;4312787;33;20516;-63
2021/07/06 11:41:42;;;;;;;6.83;1.30;;;22.50;84.50;;;;;;4313292;33;20162;-61
2021/07/06 11:44:11;;;;;;;4.73;1.27;;;22.50;85.30;;;;;;4308766;33;20158;-62
2021/07/06 11:46:41;;;;;;;3.57;1.23;;;22.10;85.70;;;;;;4333461;33;20156;-61
2021/07/06 11:49:09;;;;;;;6.47;1.27;;;21.90;86.50;;;;;;4361620;32;20178;-61
2021/07/06 11:51:41;;;;;;;6.07;1.30;;;21.80;88.70;;;;;;4360768;33;20145;-62
2021/07/06 11:54:12;;;;;;;4.27;1.80;;;21.80;88.90;;;;;;4352433;32;20144;-63
2021/07/06 11:56:39;;;;;;;4.97;1.10;;;21.70;90.10;;;;;;4345921;33;20502;-63
2021/07/06 11:59:10;;;;;;;3.67;1.43;;;21.90;90.00;;;;;;4346552;33;20169;-63
2021/07/06 12:01:38;;;;;;;5.47;1.60;;;22.20;89.40;;;;;;4341092;32;20222;-61
2021/07/06 12:04:08;;;;;;;4.80;1.20;;;22.80;87.60;;;;;;4354441;32;20550;-61
2021/07/06 12:06:35;;;;;;;4.53;1.33;;;22.90;86.70;;;;;;4345968;33;20156;-61
2021/07/06 12:09:06;;;;;;;5.83;1.53;;;22.80;85.90;;;;;;4345860;33;20140;-65
2021/07/06 12:11:32;;;;;;;6.00;1.30;;;22.90;86.60;;;;;;4345623;33;20176;-63
2021/07/06 12:14:01;;;;;;;9.40;1.37;;;22.50;86.00;;;;;;4347489;32;20144;-64
2021/07/06 12:16:29;;;;;;;8.87;1.60;;;22.30;88.80;;;;;;4345417;33;20176;-65
2021/07/06 12:18:59;;;;;;;7.10;1.50;;;22.30;88.80;;;;;;4345642;33;20159;-61
2021/07/06 12:21:28;;;;;;;6.30;1.13;;;22.00;89.30;;;;;;4345600;33;20186;-61
2021/07/06 12:24:00;;;;;;;4.83;1.27;;;21.60;89.50;;;;;;4349491;32;20183;-63
2021/07/06 12:26:28;;;;;;;5.30;1.17;;;21.30;90.40;;;;;;4346328;33;20561;-63
2021/07/06 12:28:55;;;;;;;5.27;1.33;;;21.00;91.00;;;;;;4345470;33;20453;-62
2021/07/06 12:31:27;;;;;;;9.17;2.00;;;21.00;91.60;;;;;;4345629;33;20181;-63
2021/07/06 12:34:17;;;;;;;8.13;2.00;;;21.20;92.20;;;;;;4348000;32;20145;-61
2021/07/06 12:36:47;;;;;;;5.00;1.47;;;21.30;91.40;;;;;;4299020;33;20249;-62
2021/07/06 12:39:22;;;;;;;7.37;1.67;;;21.40;91.60;;;;;;4299425;33;20298;-62
2021/07/06 12:41:52;;;;;;;5.37;1.70;;;21.20;92.00;;;;;;4296322;33;20805;-61
2021/07/06 12:44:28;;;;;;;5.07;1.47;;;21.00;93.00;;;;;;4302515;33;20166;-62
2021/07/06 12:46:55;;;;;;;7.43;1.70;;;20.80;92.30;;;;;;4309111;33;20210;-62
2021/07/06 12:49:27;;;;;;;10.70;1.80;;;20.70;93.20;;;;;;4298991;33;20193;-63
2021/07/06 12:52:01;;;;;;;6.93;1.50;;;20.70;93.40;;;;;;4300867;33;20507;-63
2021/07/06 12:54:33;;;;;;;8.40;1.27;;;21.10;93.00;;;;;;4301679;33;20160;-61
2021/07/06 12:57:00;;;;;;;6.60;1.73;;;21.60;92.90;;;;;;4295766;33;20234;-63
2021/07/06 12:59:30;;;;;;;3.90;1.30;;;22.20;91.20;;;;;;4300077;33;20197;-61
2021/07/06 13:01:58;;;;;;;6.93;1.50;;;22.60;91.50;;;;;;4298809;33;20209;-62
2021/07/06 13:04:51;;;;;;;6.07;1.30;;;22.60;91.10;;;;;;4285772;33;20173;-63